Time;durP1;ratioP1;P1;durP2;ratioP2;P2;SDS_P1;SDS_P2;PMS_P1;PMS_P2;Temp;Humidity;BMP_temperature;BMP_pressure;BME280_temperature;BME280_humidity;BME280_pressure;Samples;Min_cycle;Max_cycle;Signal;HPM_P1;HPM_P2
2022/04/29 00:00:05;;;;;;;18.27;13.57;;;;;;;;;;4998109;28;20026;-71
2022/04/29 00:02:32;;;;;;;18.42;12.95;;;;;;;;;;5026301;28;20045;-71
2022/04/29 00:04:57;;;;;;;20.27;13.90;;;;;;;;;;5022409;28;20087;-70
2022/04/29 00:07:23;;;;;;;19.30;13.35;;;;;;;;;;5018392;28;20030;-70
2022/04/29 00:09:49;;;;;;;20.25;13.25;;;;;;;;;;5028391;28;20113;-70
2022/04/29 00:12:15;;;;;;;21.27;13.23;;;;;;;;;;5016571;28;20434;-70
2022/04/29 00:14:41;;;;;;;20.75;13.73;;;;;;;;;;5024818;28;20029;-70
2022/04/29 00:17:08;;;;;;;24.15;13.95;;;;;;;;;;5022901;28;20026;-68
2022/04/29 00:19:34;;;;;;;21.73;13.65;;;;;;;;;;5017451;28;20083;-69
2022/04/29 00:22:00;;;;;;;17.95;13.30;;;;;;;;;;5028506;28;20033;-70
2022/04/29 00:24:26;;;;;;;23.70;13.45;;;;;;;;;;5017687;28;20037;-70
2022/04/29 00:26:53;;;;;;;20.02;13.43;;;;;;;;;;5023114;28;20029;-69
2022/04/29 00:29:19;;;;;;;20.80;13.63;;;;;;;;;;5024064;28;20132;-68
2022/04/29 00:31:45;;;;;;;20.23;13.02;;;;;;;;;;5029179;28;20040;-69
2022/04/29 00:34:12;;;;;;;20.40;14.48;;;;;;;;;;5015518;28;20028;-69
2022/04/29 00:36:37;;;;;;;21.52;13.43;;;;;;;;;;5024933;28;20022;-70
2022/04/29 00:39:04;;;;;;;19.42;14.02;;;;;;;;;;5022012;28;20036;-69
2022/04/29 00:41:30;;;;;;;20.20;15.07;;;;;;;;;;5017815;28;20025;-70
2022/04/29 00:44:03;;;;;;;19.77;14.18;;;;;;;;;;5010687;28;20464;-69
2022/04/29 00:46:33;;;;;;;22.55;14.77;;;;;;;;;;5018951;28;20386;-69
2022/04/29 00:48:59;;;;;;;19.73;14.20;;;;;;;;;;5021237;28;20030;-69
2022/04/29 00:51:25;;;;;;;20.02;14.45;;;;;;;;;;5025654;28;20026;-68
2022/04/29 00:53:52;;;;;;;19.77;13.50;;;;;;;;;;5044729;23;20136;-69
2022/04/29 00:56:20;;;;;;;16.77;13.27;;;;;;;;;;5029972;28;20083;-69
2022/04/29 00:58:49;;;;;;;17.77;13.13;;;;;;;;;;5030338;28;20033;-69
2022/04/29 01:01:16;;;;;;;18.23;13.65;;;;;;;;;;5020246;28;20025;-69
2022/04/29 01:03:42;;;;;;;19.83;12.73;;;;;;;;;;5028048;28;20038;-69
2022/04/29 01:06:08;;;;;;;20.00;14.75;;;;;;;;;;5013830;28;20467;-69
2022/04/29 01:08:34;;;;;;;18.50;13.55;;;;;;;;;;5017748;28;20029;-69
2022/04/29 01:11:00;;;;;;;20.80;13.68;;;;;;;;;;5003811;28;20057;-69
2022/04/29 01:13:29;;;;;;;18.23;13.65;;;;;;;;;;5025425;28;20430;-69
2022/04/29 01:15:58;;;;;;;19.52;14.07;;;;;;;;;;4997471;28;20120;-69
2022/04/29 01:18:26;;;;;;;19.45;15.07;;;;;;;;;;5025489;28;20152;-69
2022/04/29 01:21:03;;;;;;;21.33;14.43;;;;;;;;;;5020492;28;20013;-70
2022/04/29 01:23:29;;;;;;;19.30;14.75;;;;;;;;;;4999518;28;20022;-70
2022/04/29 01:25:55;;;;;;;20.50;13.98;;;;;;;;;;5027745;28;20021;-70
2022/04/29 01:28:24;;;;;;;19.77;13.93;;;;;;;;;;5015594;28;20092;-70
2022/04/29 01:30:51;;;;;;;20.48;15.35;;;;;;;;;;5028103;28;20101;-69
2022/04/29 01:33:18;;;;;;;20.58;13.95;;;;;;;;;;5031260;28;20017;-69
2022/04/29 01:35:45;;;;;;;22.77;14.35;;;;;;;;;;5018296;28;20483;-69
2022/04/29 01:38:11;;;;;;;23.17;13.63;;;;;;;;;;5014058;28;20033;-70
2022/04/29 01:40:37;;;;;;;17.75;13.32;;;;;;;;;;5031140;28;20084;-70
2022/04/29 01:43:03;;;;;;;22.05;14.05;;;;;;;;;;5020615;28;20026;-69
2022/04/29 01:45:29;;;;;;;21.65;13.82;;;;;;;;;;5023540;28;20032;-70
2022/04/29 01:47:55;;;;;;;23.48;14.70;;;;;;;;;;5013843;28;20060;-69
2022/04/29 01:50:21;;;;;;;22.02;15.40;;;;;;;;;;5008301;28;20507;-69
2022/04/29 01:52:47;;;;;;;18.80;14.38;;;;;;;;;;5019506;28;20041;-70
2022/04/29 01:55:13;;;;;;;20.25;14.68;;;;;;;;;;5019501;28;20034;-70
2022/04/29 01:57:39;;;;;;;22.20;15.60;;;;;;;;;;5025711;28;20127;-69
2022/04/29 02:00:05;;;;;;;22.52;14.43;;;;;;;;;;5014348;28;20032;-69
2022/04/29 02:02:31;;;;;;;29.02;14.05;;;;;;;;;;5006753;28;20213;-69
2022/04/29 02:04:57;;;;;;;24.27;14.15;;;;;;;;;;5020984;28;20022;-70
2022/04/29 02:07:23;;;;;;;23.25;14.68;;;;;;;;;;5016977;28;20030;-70
2022/04/29 02:09:50;;;;;;;25.27;15.32;;;;;;;;;;5027075;28;20038;-69
2022/04/29 02:12:17;;;;;;;21.30;14.60;;;;;;;;;;5030561;28;20486;-70
2022/04/29 02:14:43;;;;;;;20.92;14.35;;;;;;;;;;5005315;28;20022;-69
2022/04/29 02:17:11;;;;;;;22.45;15.32;;;;;;;;;;5021810;28;20021;-70
2022/04/29 02:19:38;;;;;;;20.60;15.50;;;;;;;;;;5015757;28;20050;-70
2022/04/29 02:22:04;;;;;;;22.00;14.88;;;;;;;;;;5009423;28;20034;-69
2022/04/29 02:24:31;;;;;;;18.65;14.73;;;;;;;;;;5016228;28;20380;-69
2022/04/29 02:26:59;;;;;;;18.52;14.13;;;;;;;;;;5021330;28;20037;-68
2022/04/29 02:29:27;;;;;;;23.88;15.32;;;;;;;;;;5024390;28;20017;-68
2022/04/29 02:31:54;;;;;;;20.83;15.23;;;;;;;;;;5010819;28;20017;-69
2022/04/29 02:34:20;;;;;;;20.90;14.43;;;;;;;;;;5029552;28;20026;-69
2022/04/29 02:36:47;;;;;;;22.92;15.68;;;;;;;;;;5004834;28;20080;-68
2022/04/29 02:39:13;;;;;;;21.02;15.52;;;;;;;;;;5021572;28;20395;-70
2022/04/29 02:41:39;;;;;;;21.67;14.85;;;;;;;;;;5029772;28;20049;-69
2022/04/29 02:44:05;;;;;;;20.25;14.25;;;;;;;;;;5017320;28;20463;-69
2022/04/29 02:46:31;;;;;;;24.98;15.10;;;;;;;;;;5027783;28;20041;-68
2022/04/29 02:48:57;;;;;;;25.10;15.00;;;;;;;;;;5023103;28;20026;-69
2022/04/29 02:51:23;;;;;;;22.35;15.50;;;;;;;;;;5021179;28;20427;-69
2022/04/29 02:53:49;;;;;;;18.83;14.50;;;;;;;;;;5012965;28;20030;-70
2022/04/29 02:56:15;;;;;;;23.15;15.00;;;;;;;;;;5018066;28;20021;-69
2022/04/29 02:58:41;;;;;;;21.73;15.73;;;;;;;;;;5025767;28;20498;-69
2022/04/29 03:01:06;;;;;;;23.33;15.27;;;;;;;;;;5007068;28;20017;-70
2022/04/29 03:03:32;;;;;;;21.70;15.50;;;;;;;;;;5018978;28;20053;-70
2022/04/29 03:05:58;;;;;;;21.92;15.68;;;;;;;;;;5029923;28;20021;-70
2022/04/29 03:08:24;;;;;;;25.85;16.02;;;;;;;;;;5018919;28;20510;-70
2022/04/29 03:10:50;;;;;;;26.77;16.63;;;;;;;;;;5024724;28;20029;-71
2022/04/29 03:13:16;;;;;;;22.38;15.60;;;;;;;;;;5025957;28;20017;-71
2022/04/29 03:15:43;;;;;;;24.42;17.05;;;;;;;;;;4999753;28;20022;-71
2022/04/29 03:18:18;;;;;;;23.20;15.68;;;;;;;;;;5029216;28;20028;-70
2022/04/29 03:20:44;;;;;;;23.42;16.55;;;;;;;;;;5021311;28;20045;-70
2022/04/29 03:23:11;;;;;;;22.92;15.73;;;;;;;;;;5004136;28;20100;-72
2022/04/29 03:25:37;;;;;;;22.95;15.57;;;;;;;;;;5028532;28;20026;-70
2022/04/29 03:28:06;;;;;;;23.67;16.48;;;;;;;;;;5015820;28;20026;-70
2022/04/29 03:30:32;;;;;;;24.33;16.42;;;;;;;;;;5030188;28;20029;-71
2022/04/29 03:32:59;;;;;;;20.55;14.20;;;;;;;;;;5033425;28;20033;-70
2022/04/29 03:35:25;;;;;;;23.65;15.68;;;;;;;;;;5018611;28;20479;-69
2022/04/29 03:37:53;;;;;;;27.63;16.40;;;;;;;;;;5029163;28;20032;-70
2022/04/29 03:40:22;;;;;;;23.27;16.15;;;;;;;;;;5018011;28;20040;-69
2022/04/29 03:42:52;;;;;;;25.00;16.23;;;;;;;;;;5023755;28;20026;-70
2022/04/29 03:45:18;;;;;;;28.15;18.98;;;;;;;;;;5025483;28;20088;-69
2022/04/29 03:47:44;;;;;;;22.45;15.60;;;;;;;;;;5015919;28;20029;-69
2022/04/29 03:50:11;;;;;;;23.40;16.13;;;;;;;;;;5029181;28;20484;-70
2022/04/29 03:52:47;;;;;;;26.23;16.42;;;;;;;;;;5001847;28;20026;-70
2022/04/29 03:55:14;;;;;;;25.33;15.93;;;;;;;;;;5020858;28;20034;-69
2022/04/29 03:57:40;;;;;;;24.88;16.23;;;;;;;;;;5027809;28;20055;-69
2022/04/29 04:00:06;;;;;;;21.67;15.75;;;;;;;;;;5016288;28;20025;-69
2022/04/29 04:02:32;;;;;;;23.85;16.88;;;;;;;;;;5026018;28;20026;-69
2022/04/29 04:04:58;;;;;;;24.73;16.15;;;;;;;;;;5022437;28;20033;-69
2022/04/29 04:07:24;;;;;;;24.60;16.17;;;;;;;;;;5018410;28;20468;-69
2022/04/29 04:09:50;;;;;;;26.35;17.23;;;;;;;;;;5028678;28;20083;-69
2022/04/29 04:12:16;;;;;;;25.55;15.57;;;;;;;;;;5016388;28;20025;-68
2022/04/29 04:14:42;;;;;;;28.42;15.85;;;;;;;;;;5024564;28;20108;-69
2022/04/29 04:17:08;;;;;;;23.00;15.70;;;;;;;;;;5023468;28;20030;-68
2022/04/29 04:19:35;;;;;;;19.83;14.68;;;;;;;;;;5017389;28;20088;-70
2022/04/29 04:22:01;;;;;;;23.15;15.73;;;;;;;;;;5028816;28;20057;-70
2022/04/29 04:24:27;;;;;;;20.15;13.38;;;;;;;;;;5018359;28;20056;-69
2022/04/29 04:26:53;;;;;;;17.00;12.32;;;;;;;;;;5023368;28;20499;-70
2022/04/29 04:29:19;;;;;;;16.33;11.95;;;;;;;;;;5024505;28;20026;-70
2022/04/29 04:31:45;;;;;;;16.67;11.13;;;;;;;;;;5011673;28;20445;-70
2022/04/29 04:36:56;;;;;;;15.05;9.90;;;;;;;;;;5022474;28;20164;-69
2022/04/29 04:39:22;;;;;;;15.35;10.20;;;;;;;;;;5018017;28;20430;-70
2022/04/29 04:41:48;;;;;;;15.68;10.15;;;;;;;;;;5028473;28;20029;-69
2022/04/29 04:44:14;;;;;;;13.50;9.35;;;;;;;;;;4997747;28;20156;-70
2022/04/29 04:46:40;;;;;;;14.25;9.95;;;;;;;;;;5024898;28;20022;-70
2022/04/29 04:49:06;;;;;;;13.98;10.05;;;;;;;;;;5022218;28;20033;-70
2022/04/29 04:51:33;;;;;;;16.33;11.15;;;;;;;;;;4999796;28;20026;-70
2022/04/29 04:53:59;;;;;;;15.52;10.23;;;;;;;;;;5027497;28;20108;-70
2022/04/29 04:56:26;;;;;;;15.07;9.95;;;;;;;;;;5016798;28;20539;-70
2022/04/29 04:58:52;;;;;;;17.08;11.88;;;;;;;;;;5021481;28;20026;-67
2022/04/29 05:01:18;;;;;;;13.05;10.13;;;;;;;;;;5020310;28;20071;-69
2022/04/29 05:03:44;;;;;;;15.95;9.55;;;;;;;;;;5025731;28;20022;-70
2022/04/29 05:06:10;;;;;;;18.67;9.77;;;;;;;;;;5023304;28;20111;-69
2022/04/29 05:08:35;;;;;;;12.32;9.48;;;;;;;;;;5030353;28;20053;-69
2022/04/29 05:11:01;;;;;;;11.65;9.20;;;;;;;;;;5031245;28;20426;-69
2022/04/29 05:13:27;;;;;;;13.88;10.10;;;;;;;;;;5024774;28;20034;-69
2022/04/29 05:15:53;;;;;;;11.73;8.68;;;;;;;;;;5029963;28;20045;-71
2022/04/29 05:18:19;;;;;;;14.98;9.52;;;;;;;;;;5029735;28;20479;-70
2022/04/29 05:20:45;;;;;;;11.93;9.27;;;;;;;;;;5030504;28;20441;-71
2022/04/29 05:23:11;;;;;;;13.45;9.60;;;;;;;;;;5031000;28;20052;-69
2022/04/29 05:25:37;;;;;;;17.90;9.85;;;;;;;;;;5015793;28;20088;-69
2022/04/29 05:28:04;;;;;;;13.70;9.82;;;;;;;;;;5026390;28;20124;-69
2022/04/29 05:30:31;;;;;;;14.07;10.02;;;;;;;;;;5017153;28;20476;-69
2022/04/29 05:32:57;;;;;;;14.82;9.68;;;;;;;;;;5031048;28;20022;-69
2022/04/29 05:35:23;;;;;;;13.68;9.13;;;;;;;;;;5027956;28;20446;-71
2022/04/29 05:37:50;;;;;;;14.07;9.93;;;;;;;;;;5012115;28;20026;-71
2022/04/29 05:43:02;;;;;;;13.70;10.52;;;;;;;;;;5021064;28;20088;-71
2022/04/29 05:45:28;;;;;;;15.48;10.52;;;;;;;;;;5025368;28;20129;-71
2022/04/29 05:47:54;;;;;;;14.60;10.52;;;;;;;;;;5014185;28;20018;-71
2022/04/29 05:50:20;;;;;;;13.95;10.80;;;;;;;;;;5023724;28;20037;-70
2022/04/29 05:52:47;;;;;;;14.63;10.80;;;;;;;;;;5017306;28;20025;-70
2022/04/29 05:55:13;;;;;;;13.75;9.93;;;;;;;;;;5017202;28;20018;-71
2022/04/29 05:57:39;;;;;;;17.20;10.55;;;;;;;;;;5006442;28;20148;-73
2022/04/29 06:00:06;;;;;;;16.90;11.02;;;;;;;;;;4995156;28;20067;-69
2022/04/29 06:02:33;;;;;;;19.15;10.75;;;;;;;;;;5026797;28;20530;-71
2022/04/29 06:05:01;;;;;;;17.02;11.15;;;;;;;;;;5029787;28;20044;-71
2022/04/29 06:07:27;;;;;;;16.10;10.68;;;;;;;;;;5014106;28;20025;-71
2022/04/29 06:09:53;;;;;;;22.05;12.35;;;;;;;;;;5043633;28;20505;-76
2022/04/29 06:12:19;;;;;;;16.58;11.88;;;;;;;;;;5038957;28;20026;-76
2022/04/29 06:14:45;;;;;;;16.75;11.68;;;;;;;;;;5035860;28;20064;-76
2022/04/29 06:17:12;;;;;;;16.33;11.50;;;;;;;;;;5035589;28;20009;-76
2022/04/29 06:19:38;;;;;;;17.35;11.18;;;;;;;;;;5009335;28;20073;-77
2022/04/29 06:22:07;;;;;;;18.20;11.13;;;;;;;;;;5030337;28;20033;-75
2022/04/29 06:24:33;;;;;;;15.52;10.13;;;;;;;;;;5001145;28;20391;-76
2022/04/29 06:26:59;;;;;;;16.88;11.20;;;;;;;;;;5036026;28;20108;-73
2022/04/29 06:29:25;;;;;;;17.75;11.52;;;;;;;;;;5026018;28;20028;-76
2022/04/29 06:31:51;;;;;;;18.27;10.52;;;;;;;;;;5031066;28;20018;-74
2022/04/29 06:34:17;;;;;;;15.90;9.90;;;;;;;;;;5019394;28;20025;-76
2022/04/29 06:36:43;;;;;;;15.60;11.10;;;;;;;;;;5035466;28;20476;-78
2022/04/29 06:39:09;;;;;;;17.40;11.50;;;;;;;;;;5035343;28;20022;-77
2022/04/29 06:41:36;;;;;;;15.45;11.02;;;;;;;;;;5016165;28;20407;-78
2022/04/29 06:44:02;;;;;;;12.20;10.38;;;;;;;;;;5017873;28;20399;-75
2022/04/29 06:46:28;;;;;;;19.17;12.35;;;;;;;;;;5016378;28;20463;-73
2022/04/29 06:48:55;;;;;;;16.52;10.85;;;;;;;;;;5033095;28;20079;-72
2022/04/29 06:51:21;;;;;;;16.60;11.70;;;;;;;;;;5015696;28;20048;-75
2022/04/29 06:53:48;;;;;;;17.67;10.70;;;;;;;;;;5042889;23;20434;-71
2022/04/29 06:56:14;;;;;;;19.85;11.30;;;;;;;;;;5029202;28;20180;-69
2022/04/29 06:58:40;;;;;;;15.70;10.27;;;;;;;;;;5017040;28;20085;-68
2022/04/29 07:01:06;;;;;;;12.27;10.38;;;;;;;;;;5028169;28;20048;-71
2022/04/29 07:03:32;;;;;;;14.50;10.55;;;;;;;;;;5033332;28;20025;-71
2022/04/29 07:06:00;;;;;;;16.50;11.43;;;;;;;;;;5025853;28;20069;-68
2022/04/29 07:08:28;;;;;;;18.23;11.25;;;;;;;;;;5029866;28;20383;-67
2022/04/29 07:10:54;;;;;;;19.73;11.45;;;;;;;;;;5001794;28;20017;-68
2022/04/29 07:13:20;;;;;;;24.35;11.13;;;;;;;;;;5044880;28;20037;-68
2022/04/29 07:15:48;;;;;;;18.23;10.60;;;;;;;;;;5033804;28;20029;-72
2022/04/29 07:18:14;;;;;;;19.33;9.80;;;;;;;;;;5038608;28;20039;-71
2022/04/29 07:20:40;;;;;;;16.08;10.55;;;;;;;;;;5019202;28;20032;-70
2022/04/29 07:23:06;;;;;;;23.08;10.93;;;;;;;;;;5037274;28;20104;-71
2022/04/29 07:25:32;;;;;;;20.30;10.38;;;;;;;;;;5012102;28;20133;-71
2022/04/29 07:27:58;;;;;;;18.58;10.00;;;;;;;;;;5030217;28;20036;-71
2022/04/29 07:30:26;;;;;;;12.10;8.90;;;;;;;;;;5031378;28;20407;-71
2022/04/29 07:32:52;;;;;;;17.70;9.32;;;;;;;;;;5031984;28;20025;-71
2022/04/29 07:43:32;;;;;;;14.38;7.80;;;;;;;;;;5022208;28;20135;-71
2022/04/29 07:45:59;;;;;;;14.30;8.88;;;;;;;;;;5052640;28;20048;-70
2022/04/29 07:48:25;;;;;;;15.25;8.70;;;;;;;;;;5051932;28;20411;-71
2022/04/29 07:50:51;;;;;;;14.38;9.00;;;;;;;;;;5052494;28;20021;-71
2022/04/29 07:53:18;;;;;;;16.13;10.35;;;;;;;;;;5033562;28;20037;-70
2022/04/29 07:55:44;;;;;;;14.80;9.70;;;;;;;;;;5037936;28;20025;-71
2022/04/29 07:58:10;;;;;;;14.40;9.43;;;;;;;;;;5042082;28;20033;-71
2022/04/29 08:00:39;;;;;;;18.00;10.32;;;;;;;;;;5010460;28;20034;-71
2022/04/29 08:03:05;;;;;;;13.63;9.60;;;;;;;;;;5012645;28;20032;-71
2022/04/29 08:05:32;;;;;;;21.60;9.32;;;;;;;;;;5012789;28;20109;-71
2022/04/29 08:08:01;;;;;;;13.75;9.55;;;;;;;;;;5012143;28;20102;-71
2022/04/29 08:10:31;;;;;;;13.63;9.32;;;21.50;38.10;;;;;;5032403;28;20120;-70
2022/04/29 08:12:59;;;;;;;12.93;9.60;;;20.50;38.10;;;;;;5032604;28;20021;-70
2022/04/29 08:15:29;;;;;;;17.23;11.13;;;18.80;42.40;;;;;;5032169;28;20025;-71
2022/04/29 08:17:57;;;;;;;16.55;10.00;;;19.30;42.80;;;;;;5031597;28;20048;-70
2022/04/29 08:20:23;;;;;;;21.92;10.15;;;19.50;41.10;;;;;;5032257;28;20095;-71
2022/04/29 08:22:48;;;;;;;16.55;9.90;;;20.00;40.30;;;;;;5032167;28;20030;-70
2022/04/29 08:25:18;;;;;;;15.85;10.38;;;;;;;;;;5032262;28;20037;-71
2022/04/29 08:27:45;;;;;;;14.82;8.88;;;;;;;;;;5031404;28;20487;-71
2022/04/29 08:30:11;;;;;;;14.02;7.72;;;23.00;35.20;;;;;;5031460;28;20029;-71
2022/04/29 08:32:43;;;;;;;13.32;8.57;;;22.90;35.20;;;;;;5031857;28;20049;-70
2022/04/29 08:35:10;;;;;;;16.00;9.25;;;22.70;34.20;;;;;;5014109;28;20021;-71
2022/04/29 08:37:42;;;;;;;14.85;10.00;;;22.90;33.80;;;;;;5013791;28;20025;-70
2022/04/29 08:40:09;;;;;;;16.92;9.45;;;21.60;35.40;;;;;;5014151;28;20025;-70
2022/04/29 08:42:38;;;;;;;12.98;9.13;;;20.30;37.60;;;;;;5030518;28;20029;-71
2022/04/29 08:45:07;;;;;;;14.23;8.38;;;20.30;38.80;;;;;;5011738;28;20068;-71
2022/04/29 08:47:37;;;;;;;17.00;8.75;;;21.10;36.40;;;;;;5016063;28;20024;-71
2022/04/29 08:50:06;;;;;;;19.35;8.43;;;21.70;35.00;;;;;;5031786;28;20029;-70
2022/04/29 08:52:34;;;;;;;22.00;8.60;;;22.20;35.80;;;;;;5031733;28;20108;-70
2022/04/29 09:00:30;;;;;;;10.82;6.38;;;23.20;33.80;;;;;;5032004;28;20072;-70
2022/04/29 09:02:55;;;;;;;12.82;6.25;;;23.70;31.20;;;;;;5031675;28;20030;-71
2022/04/29 09:05:21;;;;;;;21.48;6.07;;;24.10;29.90;;;;;;5031388;28;20034;-72
2022/04/29 09:08:01;;;;;;;11.90;5.03;;;24.00;28.90;;;;;;5030658;28;20088;-71
2022/04/29 09:10:30;;;;;;;11.75;5.85;;;23.70;29.60;;;;;;5031390;28;20033;-70
2022/04/29 09:13:09;;;;;;;11.70;6.35;;;24.00;30.20;;;;;;5031659;28;20022;-70
2022/04/29 09:15:36;;;;;;;11.98;6.25;;;23.30;31.10;;;;;;5031347;28;20105;-70
2022/04/29 09:18:02;;;;;;;10.27;5.78;;;22.50;31.60;;;;;;5012740;28;20026;-72
2022/04/29 09:20:28;;;;;;;16.38;6.35;;;22.00;31.80;;;;;;5031123;28;20087;-70
2022/04/29 09:22:54;;;;;;;10.63;6.03;;;;;;;;;;5013446;28;20029;-72
2022/04/29 09:25:20;;;;;;;9.40;4.82;;;;;;;;;;5013467;28;20021;-70
2022/04/29 09:27:57;;;;;;;12.18;5.03;;;;;;;;;;5013275;28;20489;-71
2022/04/29 09:30:38;;;;;;;10.38;5.07;;;;;;;;;;5031658;28;20108;-70
2022/04/29 09:33:08;;;;;;;15.50;6.18;;;;;;;;;;5031404;28;20506;-70
2022/04/29 09:35:37;;;;;;;10.27;5.75;;;;;;;;;;5028681;28;20104;-70
2022/04/29 09:40:48;;;;;;;10.88;5.00;;;;;;;;;;5032651;28;20052;-70
2022/04/29 09:43:14;;;;;;;9.90;4.45;;;;;;;;;;5035335;28;20096;-72
2022/04/29 09:45:40;;;;;;;14.55;5.82;;;;;;;;;;5017284;28;20107;-70
2022/04/29 09:48:09;;;;;;;14.90;5.88;;;;;;;;;;5034669;28;20523;-70
2022/04/29 09:50:48;;;;;;;11.98;6.00;;;;;;;;;;5035144;28;20036;-68
2022/04/29 09:53:21;;;;;;;7.13;4.63;;;;;;;;;;5017164;28;20539;-71
2022/04/29 09:56:06;;;;;;;13.57;5.07;;;;;;;;;;5017778;28;20041;-71
2022/04/29 09:58:32;;;;;;;9.75;5.57;;;;;;;;;;5034125;28;20017;-71
2022/04/29 10:01:00;;;;;;;9.05;5.30;;;;;;;;;;5034969;28;20029;-70
2022/04/29 10:03:26;;;;;;;10.45;5.25;;;;;;;;;;5035116;28;20056;-72
2022/04/29 10:05:55;;;;;;;9.38;5.45;;;;;;;;;;5034966;28;20036;-71
2022/04/29 10:08:22;;;;;;;11.95;6.35;;;;;;;;;;5033814;28;20028;-72
2022/04/29 10:10:48;;;;;;;12.90;5.38;;;;;;;;;;5034584;28;20026;-71
2022/04/29 10:13:15;;;;;;;9.95;5.47;;;;;;;;;;5016685;28;20112;-70
2022/04/29 10:15:42;;;;;;;8.50;4.85;;;;;;;;;;5034543;28;20022;-71
2022/04/29 10:23:41;;;;;;;12.25;4.75;;;;;;;;;;5034903;28;20072;-72
2022/04/29 10:26:07;;;;;;;12.45;5.80;;;;;;;;;;5034688;28;20049;-70
2022/04/29 10:28:33;;;;;;;9.93;4.47;;;;;;;;;;5033617;28;20076;-71
2022/04/29 10:31:00;;;;;;;8.57;4.50;;;;;;;;;;5034427;28;20026;-71
2022/04/29 10:33:26;;;;;;;11.82;5.43;;;;;;;;;;5016367;28;20022;-71
2022/04/29 10:35:56;;;;;;;6.57;4.75;;;;;;;;;;5033959;28;20049;-71
2022/04/29 10:38:24;;;;;;;12.10;5.22;;;;;;;;;;5033406;28;20022;-70
2022/04/29 10:41:13;;;;;;;10.32;5.00;;;;;;;;;;5041123;28;20033;-71
2022/04/29 10:43:46;;;;;;;11.70;5.07;;;;;;;;;;5035316;28;20034;-70
2022/04/29 10:46:15;;;;;;;8.55;5.03;;;;;;;;;;5033220;28;20453;-70
2022/04/29 10:48:42;;;;;;;15.70;5.50;;;;;;;;;;5034948;28;20028;-70
2022/04/29 10:51:20;;;;;;;11.65;4.55;;;;;;;;;;5053953;28;20442;-70
2022/04/29 10:53:47;;;;;;;8.82;4.85;;;;;;;;;;5053346;28;20111;-70
2022/04/29 10:56:30;;;;;;;17.80;5.88;;;;;;;;;;5046161;28;20605;-72
2022/04/29 10:59:08;;;;;;;11.60;5.35;;;;;;;;;;5044750;28;20071;-71
2022/04/29 11:01:35;;;;;;;18.63;7.65;;;;;;;;;;5016319;28;20033;-70
2022/04/29 11:04:01;;;;;;;12.80;5.57;;;;;;;;;;5032948;28;20044;-70
2022/04/29 11:06:41;;;;;;;18.10;6.53;;;;;;;;;;5032968;28;20502;-72
2022/04/29 11:09:25;;;;;;;11.15;5.28;;;;;;;;;;5018741;28;20013;-71
2022/04/29 11:11:51;;;;;;;9.15;3.90;;;;;;;;;;5023544;28;20033;-71
2022/04/29 11:14:17;;;;;;;9.80;4.20;;;;;;;;;;5001868;28;20018;-68
2022/04/29 11:16:52;;;;;;;7.63;3.67;;;;;;;;;;5032913;28;20372;-70
2022/04/29 11:19:22;;;;;;;6.45;3.70;;;;;;;;;;5019886;28;20022;-71
2022/04/29 11:24:43;;;;;;;7.68;3.83;;;;;;;;;;5013887;28;20048;-71
2022/04/29 11:27:09;;;;;;;14.95;5.10;;;;;;;;;;5019693;28;20551;-70
2022/04/29 11:29:42;;;;;;;9.30;4.15;;;;;;;;;;5032472;28;20029;-70
2022/04/29 11:32:08;;;;;;;6.97;4.50;;;;;;;;;;5033399;28;20108;-72
2022/04/29 11:34:34;;;;;;;10.98;5.20;;;;;;;;;;5033055;28;20480;-71
2022/04/29 11:37:00;;;;;;;10.40;4.25;;;;;;;;;;5014937;28;20029;-69
2022/04/29 11:39:26;;;;;;;11.43;4.43;;;;;;;;;;5032907;28;20033;-70
2022/04/29 11:41:57;;;;;;;5.82;4.15;;;;;;;;;;5015630;28;20028;-70
2022/04/29 11:44:45;;;;;;;7.70;4.45;;;;;;;;;;5024022;28;20080;-71
2022/04/29 11:47:11;;;;;;;11.38;5.25;;;;;;;;;;5021692;28;20036;-70
2022/04/29 11:49:38;;;;;;;11.63;5.75;;;;;;;;;;5015332;28;20116;-71
2022/04/29 11:52:39;;;;;;;9.45;5.20;;;;;;;;;;5015206;28;20033;-72
2022/04/29 11:55:06;;;;;;;8.57;5.15;;;;;;;;;;4970866;28;20042;-71
2022/04/29 11:57:33;;;;;;;8.90;5.25;;;;;;;;;;5012207;28;20084;-71
2022/04/29 12:00:00;;;;;;;10.40;5.43;;;;;;;;;;5013058;28;20492;-71
2022/04/29 12:02:27;;;;;;;7.30;4.65;;;;;;;;;;5012875;28;20499;-71
2022/04/29 12:04:57;;;;;;;7.97;4.70;;;;;;;;;;5031773;28;20035;-72
2022/04/29 12:07:24;;;;;;;8.57;5.38;;;;;;;;;;5013971;28;20030;-71
2022/04/29 12:09:50;;;;;;;9.48;5.03;;;;;;;;;;5031333;28;20029;-69
2022/04/29 12:12:29;;;;;;;12.10;5.63;;;;;;;;;;5032471;28;20030;-71
2022/04/29 12:14:55;;;;;;;10.27;5.03;;;;;;;;;;5032137;28;20457;-71
2022/04/29 12:17:31;;;;;;;7.32;5.65;;;;;;;;;;5031317;28;20026;-71
2022/04/29 12:19:57;;;;;;;7.95;5.25;;;;;;;;;;5026615;28;20073;-71
2022/04/29 12:22:33;;;;;;;10.52;5.50;;;;;;;;;;5018665;28;20041;-74
2022/04/29 12:25:18;;;;;;;12.18;5.85;;;;;;;;;;5068888;28;20437;-71
2022/04/29 12:27:44;;;;;;;9.95;5.95;;;;;;;;;;5067929;28;20032;-71
2022/04/29 12:36:05;;;;;;;17.20;5.30;;;;;;;;;;5066086;28;20044;-72
2022/04/29 12:38:35;;;;;;;8.23;4.95;;;;;;;;;;5056651;23;20038;-75
2022/04/29 12:41:20;;;;;;;10.02;5.95;;;;;;;;;;5028948;28;20038;-76
2022/04/29 12:43:46;;;;;;;8.50;4.85;;;;;;;;;;5027443;28;20025;-75
2022/04/29 12:46:16;;;;;;;10.50;5.38;;;;;;;;;;5029043;28;20030;-74
2022/04/29 12:48:46;;;;;;;11.00;5.60;;;;;;;;;;5027802;28;20104;-75
2022/04/29 12:51:32;;;;;;;14.02;5.97;;;;;;;;;;5028496;28;20029;-74
2022/04/29 12:53:59;;;;;;;8.15;5.22;;;;;;;;;;5033993;28;20060;-75
2022/04/29 12:56:32;;;;;;;8.68;5.18;;;;;;;;;;5028739;28;20018;-75
2022/04/29 12:58:59;;;;;;;14.35;5.60;;;;;;;;;;5027512;28;20085;-75
2022/04/29 13:01:26;;;;;;;7.93;5.15;;;;;;;;;;5028334;28;20026;-75
2022/04/29 13:03:52;;;;;;;8.52;4.78;;;;;;;;;;5043333;28;20057;-75
2022/04/29 13:06:20;;;;;;;9.00;5.18;;;;;;;;;;5026449;28;20443;-74
2022/04/29 13:08:46;;;;;;;9.90;5.78;;;;;;;;;;5026108;28;20413;-76
2022/04/29 13:11:19;;;;;;;13.23;6.65;;;;;;;;;;5034654;28;20026;-75
2022/04/29 13:13:45;;;;;;;11.43;5.93;;;;;;;;;;5030530;28;20025;-76
2022/04/29 13:16:11;;;;;;;11.25;4.72;;;;;;;;;;5028305;28;20029;-75
2022/04/29 13:18:37;;;;;;;10.20;4.95;;;;;;;;;;5025947;28;20399;-75
2022/04/29 13:21:07;;;;;;;6.13;4.75;;;;;;;;;;5028113;28;20034;-75
2022/04/29 13:23:34;;;;;;;10.82;5.60;;;;;;;;;;5027265;28;20022;-75
2022/04/29 13:26:01;;;;;;;14.35;4.95;;;;;;;;;;5028451;28;20514;-75
2022/04/29 13:28:27;;;;;;;10.38;5.35;;;;;;;;;;5027636;28;20539;-75
2022/04/29 13:30:53;;;;;;;12.85;5.00;;;;;;;;;;5027246;28;20022;-74
2022/04/29 13:33:19;;;;;;;9.35;4.68;;;;;;;;;;5028673;28;20100;-77
2022/04/29 13:35:45;;;;;;;11.13;4.05;;;;;;;;;;5019341;28;20061;-75
2022/04/29 13:38:11;;;;;;;7.80;4.20;;;;;;;;;;5014680;28;20092;-75
2022/04/29 13:40:37;;;;;;;9.57;4.40;;;;;;;;;;5016638;28;20117;-75
2022/04/29 13:43:07;;;;;;;6.00;4.30;;;;;;;;;;5015525;28;20021;-76
2022/04/29 13:45:34;;;;;;;12.30;4.97;;;;;;;;;;5025956;28;20026;-75
2022/04/29 13:48:00;;;;;;;7.90;4.85;;;;;;;;;;5040632;28;20026;-77
2022/04/29 13:50:26;;;;;;;8.40;4.82;;;;;;;;;;5038023;28;20033;-75
2022/04/29 13:55:37;;;;;;;9.27;5.05;;;;;;;;;;5017126;28;20049;-76
2022/04/29 13:58:04;;;;;;;10.40;4.88;;;;;;;;;;5021618;28;20026;-76
2022/04/29 14:00:30;;;;;;;8.95;4.70;;;;;;;;;;5043464;28;20021;-76
2022/04/29 14:02:56;;;;;;;15.63;5.25;;;;;;;;;;5042709;28;20029;-75
2022/04/29 14:05:24;;;;;;;7.75;5.10;;;;;;;;;;5038016;28;20078;-76
2022/04/29 14:07:50;;;;;;;7.57;5.13;;;;;;;;;;5026511;28;20022;-74
2022/04/29 14:10:16;;;;;;;8.80;4.38;;;;;;;;;;5024883;28;20073;-75
2022/04/29 14:12:43;;;;;;;5.82;3.80;;;;;;;;;;5016266;28;20030;-74
2022/04/29 14:15:09;;;;;;;7.05;4.05;;;;;;;;;;5012208;28;20101;-75
2022/04/29 14:17:36;;;;;;;9.23;4.57;;;;;;;;;;5012827;28;20166;-74
2022/04/29 14:20:02;;;;;;;8.60;4.38;;;;;;;;;;5014003;28;20026;-74
2022/04/29 14:22:27;;;;;;;7.65;4.32;;;;;;;;;;5011809;28;20022;-73
2022/04/29 14:24:53;;;;;;;11.35;5.25;;;;;;;;;;5011669;28;20132;-74
2022/04/29 14:27:20;;;;;;;7.85;4.05;;;;;;;;;;5012814;28;20431;-76
2022/04/29 14:29:46;;;;;;;8.57;4.10;;;;;;;;;;5013760;28;20543;-76
2022/04/29 14:32:13;;;;;;;5.95;3.72;;;;;;;;;;5014734;28;20026;-75
2022/04/29 14:34:39;;;;;;;6.15;4.35;;;;;;;;;;5013817;28;20037;-74
2022/04/29 14:37:06;;;;;;;7.03;4.47;;;;;;;;;;5013004;28;20103;-76
2022/04/29 14:39:32;;;;;;;13.40;5.13;;;;;;;;;;5013297;28;20109;-75
2022/04/29 14:41:58;;;;;;;14.07;4.90;;;;;;;;;;5013945;28;20460;-75
2022/04/29 14:44:24;;;;;;;6.63;4.18;;;;;;;;;;5014674;28;20026;-74
2022/04/29 14:46:50;;;;;;;7.00;4.22;;;;;;;;;;5012667;28;20033;-76
2022/04/29 14:49:17;;;;;;;11.43;5.50;;;;;;;;;;5013085;28;20033;-75
2022/04/29 14:51:43;;;;;;;14.13;5.45;;;;;;;;;;5013869;28;20033;-75
2022/04/29 14:54:09;;;;;;;10.35;4.97;;;;;;;;;;5015998;28;20150;-74
2022/04/29 14:56:37;;;;;;;9.75;5.20;;;;;;;;;;5013516;28;20109;-77